Terminal Aerodrome Forecast
Issued by NWS

Home | Current Version | Previous Version | Text Only | Print | Product List | Glossary On
Versions: 1 2 3 4 5 6 7 8 9 10 11 12 13 14
000
FTAK31 PAJN 281500 AAA
TAFASI
TAF AMD
PASI 281508Z 2815/2912 VRB04KT P6SM SKC
     FM282100 12008KT P6SM SKC
     FM290900 04004KT P6SM BKN080=

USA.gov is the U.S. government's official web portal to all federal, state and local government web resources and services.